Time;durP1;ratioP1;P1;durP2;ratioP2;P2;SDS_P1;SDS_P2;PMS_P1;PMS_P2;Temp;Humidity;BMP_temperature;BMP_pressure;BME280_temperature;BME280_humidity;BME280_pressure;Samples;Min_cycle;Max_cycle;Signal;HPM_P1;HPM_P2
2022/06/17 00:01:15;;;;;;;9.50;4.62;;;;;;;15.27;55.45;100398.91;1777256;78;20957;-75
2022/06/17 00:03:42;;;;;;;11.63;4.95;;;;;;;15.29;55.39;100396.92;1785459;78;21024;-75
2022/06/17 00:06:09;;;;;;;11.15;5.47;;;;;;;15.29;55.42;100390.27;1782995;78;21115;-74
2022/06/17 00:08:41;;;;;;;12.15;4.47;;;;;;;15.29;55.48;100394.26;1779016;78;22318;-74
2022/06/17 00:11:14;;;;;;;7.78;5.20;;;;;;;15.28;55.48;100397.08;1777327;78;21070;-74
2022/06/17 00:13:42;;;;;;;9.18;4.95;;;;;;;15.27;55.43;100399.39;1772531;78;21042;-74
2022/06/17 00:16:13;;;;;;;8.10;5.00;;;;;;;15.24;55.43;100397.02;1773816;79;21075;-74
2022/06/17 00:18:40;;;;;;;8.58;4.90;;;;;;;15.23;55.48;100397.52;1789876;78;21464;-74
2022/06/17 00:21:06;;;;;;;8.00;5.28;;;;;;;15.20;55.72;100401.81;1781031;78;22539;-75
2022/06/17 00:23:33;;;;;;;9.18;4.65;;;;;;;15.14;55.94;100400.58;1780436;78;21056;-76
2022/06/17 00:26:00;;;;;;;11.57;5.10;;;;;;;15.09;56.07;100401.55;1770601;79;20966;-75
2022/06/17 00:28:28;;;;;;;7.90;5.05;;;;;;;15.03;56.17;100399.47;1780542;78;21002;-75
2022/06/17 00:30:54;;;;;;;9.88;5.00;;;;;;;14.96;56.36;100402.41;1780408;78;21034;-75
2022/06/17 00:33:21;;;;;;;10.40;5.10;;;;;;;14.90;56.38;100393.69;1779794;79;22163;-75
2022/06/17 00:35:53;;;;;;;9.15;5.40;;;;;;;14.88;56.45;100396.50;1779537;78;20941;-75
2022/06/17 00:38:25;;;;;;;10.90;6.50;;;;;;;14.88;56.40;100389.84;1754407;80;21477;-75
2022/06/17 00:40:52;;;;;;;14.00;6.62;;;;;;;14.89;56.40;100390.69;1773213;78;21028;-76
2022/06/17 00:43:31;;;;;;;11.50;6.80;;;;;;;14.88;56.58;100393.00;1778955;79;21067;-75
2022/06/17 00:46:33;;;;;;;14.58;6.92;;;;;;;14.84;56.68;100385.80;1755296;78;21933;-75
2022/06/17 00:49:28;;;;;;;12.50;7.15;;;;;;;14.79;56.87;100385.42;1772401;78;20998;-75
2022/06/17 00:52:06;;;;;;;10.05;7.00;;;;;;;14.72;57.07;100388.31;1783286;78;20945;-75
2022/06/17 00:54:51;;;;;;;12.78;7.60;;;;;;;14.66;57.19;100384.08;1776187;78;20959;-75
2022/06/17 00:57:28;;;;;;;14.13;7.53;;;;;;;14.64;57.32;100385.55;1777775;79;20993;-75
2022/06/17 01:00:15;;;;;;;14.40;8.03;;;;;;;14.62;57.52;100385.38;1768891;79;22511;-73
2022/06/17 01:02:49;;;;;;;14.10;7.75;;;;;;;14.55;57.68;100382.45;1728361;80;21452;-73
2022/06/17 01:05:21;;;;;;;12.70;7.78;;;;;;;14.53;57.75;100380.44;1754294;80;20949;-74
2022/06/17 01:08:05;;;;;;;14.43;8.68;;;;;;;14.54;57.71;100380.28;1754592;80;21031;-74
2022/06/17 01:10:33;;;;;;;13.80;8.75;;;;;;;14.54;57.70;100383.44;1752726;80;20939;-74
2022/06/17 01:13:05;;;;;;;16.57;8.48;;;;;;;14.52;57.93;100382.76;1759158;80;21000;-74
2022/06/17 01:15:35;;;;;;;11.37;6.13;;;;;;;14.45;58.24;100377.67;1719479;80;20992;-74
2022/06/17 01:18:02;;;;;;;11.83;7.55;;;;;;;14.39;58.45;100377.75;1736477;80;21032;-73
2022/06/17 01:20:29;;;;;;;10.75;7.40;;;;;;;14.33;58.61;100377.00;1754156;80;21075;-74
2022/06/17 01:22:58;;;;;;;10.88;6.80;;;;;;;14.27;58.72;100371.77;1752258;80;20956;-73
2022/06/17 01:25:31;;;;;;;13.95;7.00;;;;;;;14.27;58.79;100370.44;1762084;80;21887;-73
2022/06/17 01:28:01;;;;;;;10.08;5.58;;;;;;;14.25;58.85;100367.58;1757994;80;21000;-73
2022/06/17 01:30:33;;;;;;;9.85;5.58;;;;;;;14.24;59.01;100367.24;1755873;80;21064;-74
2022/06/17 01:33:13;;;;;;;10.18;5.20;;;;;;;14.22;59.13;100366.06;1753454;80;21402;-74
2022/06/17 01:35:55;;;;;;;16.12;4.90;;;;;;;14.19;59.31;100367.69;1751727;80;21057;-73
2022/06/17 01:38:22;;;;;;;8.00;4.12;;;;;;;14.17;59.39;100366.14;1764136;80;21819;-73
2022/06/17 01:40:49;;;;;;;10.63;4.80;;;;;;;14.19;59.41;100367.69;1730347;81;21515;-73
2022/06/17 01:43:18;;;;;;;10.18;4.87;;;;;;;14.21;59.39;100363.06;1769608;79;20949;-74
2022/06/17 01:45:56;;;;;;;10.80;4.80;;;;;;;14.25;59.27;100359.13;1762199;81;21027;-75
2022/06/17 01:48:25;;;;;;;8.90;4.70;;;;;;;14.28;59.19;100360.18;1757614;80;20972;-73
2022/06/17 01:50:53;;;;;;;7.20;4.42;;;;;;;14.30;59.15;100366.17;1754293;80;21783;-73
2022/06/17 01:53:23;;;;;;;8.78;4.67;;;;;;;14.31;59.11;100362.53;1754844;80;21024;-74
2022/06/17 01:55:54;;;;;;;9.45;4.72;;;;;;;14.32;59.09;100357.56;1752833;80;21449;-74
2022/06/17 01:58:36;;;;;;;15.23;5.10;;;;;;;14.35;59.10;100363.56;1751684;80;21024;-74
2022/06/17 02:01:04;;;;;;;12.00;4.87;;;;;;;14.33;59.19;100357.07;1737571;80;20989;-73
2022/06/17 02:03:39;;;;;;;15.40;4.72;;;;;;;14.27;59.41;100354.98;1751851;80;21819;-73
2022/06/17 02:06:17;;;;;;;10.58;4.53;;;;;;;14.19;59.67;100351.75;1757018;80;27465;-74
2022/06/17 02:08:45;;;;;;;7.37;4.65;;;;;;;14.11;59.89;100352.97;1753888;80;20992;-73
2022/06/17 02:13:48;;;;;;;8.30;4.05;;;;;;;14.06;60.21;100353.88;1755362;80;21028;-72
2022/06/17 02:16:20;;;;;;;9.88;3.95;;;;;;;14.07;60.21;100354.71;1754517;80;21854;-76
2022/06/17 02:18:57;;;;;;;10.50;4.33;;;;;;;14.10;60.17;100357.94;1744880;80;21016;-73
2022/06/17 02:21:30;;;;;;;8.98;4.45;;;;;;;14.14;60.16;100361.97;1724747;81;21021;-71
2022/06/17 02:23:57;;;;;;;7.37;4.25;;;;;;;14.17;60.24;100361.66;1755854;80;20972;-73
2022/06/17 02:26:23;;;;;;;9.55;4.10;;;;;;;14.20;60.28;100365.87;1746862;80;20997;-75
2022/06/17 02:28:50;;;;;;;7.53;4.05;;;;;;;14.21;60.17;100357.75;1757667;80;22308;-72
2022/06/17 02:31:19;;;;;;;9.80;4.20;;;;;;;14.24;60.14;100357.45;1760330;80;21063;-72
2022/06/17 02:33:51;;;;;;;8.98;4.15;;;;;;;14.26;60.14;100354.64;1764524;80;21536;-73
2022/06/17 02:36:36;;;;;;;7.58;4.20;;;;;;;14.28;60.10;100364.16;1753690;80;21117;-74
2022/06/17 02:39:04;;;;;;;8.03;4.08;;;;;;;14.32;60.05;100358.89;1751679;81;21042;-75
2022/06/17 02:41:30;;;;;;;10.00;4.10;;;;;;;14.37;60.02;100356.27;1757442;80;21820;-73
2022/06/17 02:44:05;;;;;;;10.03;3.42;;;;;;;14.39;59.95;100351.19;1754678;80;21047;-73
2022/06/17 02:46:36;;;;;;;8.65;4.00;;;;;;;14.41;59.93;100353.20;1759591;80;29285;-73
2022/06/17 02:49:07;;;;;;;6.95;3.52;;;;;;;14.44;59.88;100354.22;1745274;80;20957;-76
2022/06/17 02:51:38;;;;;;;10.73;3.80;;;;;;;14.44;59.83;100347.58;1762072;80;20941;-73
2022/06/17 02:54:05;;;;;;;8.90;3.40;;;;;;;14.47;59.75;100350.45;1753728;80;21819;-74
2022/06/17 02:56:34;;;;;;;11.33;3.55;;;;;;;14.46;59.83;100345.63;1757491;80;21014;-73
2022/06/17 02:59:30;;;;;;;7.70;3.08;;;;;;;14.47;59.87;100350.45;1755651;78;20974;-73
2022/06/17 03:02:01;;;;;;;11.80;3.42;;;;;;;14.49;59.86;100349.84;1769812;78;21443;-73
2022/06/17 03:04:38;;;;;;;11.12;3.30;;;;;;;14.52;59.84;100349.53;1803113;78;21023;-74
2022/06/17 03:07:17;;;;;;;8.28;3.10;;;;;;;14.53;59.84;100347.22;1778445;78;22672;-74
2022/06/17 03:09:44;;;;;;;7.30;3.42;;;;;;;14.56;59.80;100350.90;1775307;78;20952;-74
2022/06/17 03:12:17;;;;;;;6.40;3.50;;;;;;;14.58;59.78;100352.94;1774940;78;20992;-73
2022/06/17 03:14:57;;;;;;;8.35;3.67;;;;;;;14.58;59.77;100348.46;1777734;78;21027;-73
2022/06/17 03:17:24;;;;;;;9.45;3.90;;;;;;;14.60;59.82;100351.80;1779611;80;21098;-73
2022/06/17 03:19:54;;;;;;;7.40;3.40;;;;;;;14.62;59.91;100360.95;1768672;79;21843;-72
2022/06/17 03:22:21;;;;;;;5.65;3.47;;;;;;;14.63;60.02;100356.47;1767525;78;21033;-73
2022/06/17 03:25:08;;;;;;;10.00;3.67;;;;;;;14.66;59.99;100356.16;1776937;79;20998;-73
2022/06/17 03:27:43;;;;;;;14.58;3.67;;;;;;;14.70;60.00;100353.57;1777793;80;21521;-72
2022/06/17 03:30:12;;;;;;;8.38;3.95;;;;;;;14.78;60.04;100351.01;1759418;80;21070;-71
2022/06/17 03:32:41;;;;;;;7.80;4.20;;;;;;;14.84;60.02;100348.56;1753552;80;21833;-72
2022/06/17 03:35:18;;;;;;;10.15;3.72;;;;;;;14.91;59.81;100347.98;1792617;78;20990;-72
2022/06/17 03:37:58;;;;;;;5.17;3.40;;;;;;;14.98;59.86;100346.40;1776030;79;21391;-73
2022/06/17 03:40:35;;;;;;;7.83;4.17;;;;;;;15.05;59.87;100348.28;1756357;80;21489;-73
2022/06/17 03:43:22;;;;;;;6.40;3.58;;;;;;;15.16;59.74;100335.27;1770405;78;21451;-75
2022/06/17 03:46:00;;;;;;;10.88;3.92;;;;;;;15.24;59.60;100332.66;1786035;78;22007;-72
2022/06/17 03:48:58;;;;;;;7.50;3.50;;;;;;;15.36;59.49;100327.96;1777965;78;20935;-73
2022/06/17 03:51:27;;;;;;;7.37;3.60;;;;;;;15.45;59.22;100323.88;1777108;78;21040;-73
2022/06/17 03:53:55;;;;;;;6.22;3.52;;;;;;;15.57;58.98;100320.97;1777506;78;21012;-72
2022/06/17 03:56:29;;;;;;;6.10;3.58;;;;;;;15.67;58.62;100317.75;1779073;78;21048;-73
2022/06/17 03:59:00;;;;;;;11.30;3.65;;;;;;;15.78;58.26;100309.98;1779518;79;21718;-73
2022/06/17 04:01:42;;;;;;;9.58;3.80;;;;;;;15.90;58.06;100318.05;1776151;79;21516;-73
2022/06/17 04:04:31;;;;;;;5.92;3.33;;;;;;;15.99;57.91;100315.27;1779368;78;21008;-72
2022/06/17 04:07:00;;;;;;;7.72;3.02;;;;;;;16.10;57.42;100319.98;1780086;79;20985;-75
2022/06/17 04:09:31;;;;;;;7.22;3.10;;;;;;;16.21;56.94;100317.04;1780455;79;21104;-72
2022/06/17 04:12:03;;;;;;;7.17;3.37;;;;;;;16.30;56.93;100319.58;1785378;78;21921;-72
2022/06/17 04:14:43;;;;;;;9.47;3.23;;;;;;;16.40;57.18;100307.46;1797682;78;20917;-73
2022/06/17 04:17:34;;;;;;;8.10;2.80;;;;;;;16.48;57.31;100307.49;1776392;78;21662;-75
2022/06/17 04:20:41;;;;;;;7.05;2.60;;;;;;;16.60;56.83;100314.22;1773072;78;20961;-73
2022/06/17 04:23:22;;;;;;;6.33;2.75;;;;;;;16.72;56.57;100316.11;1780358;80;21028;-74
2022/06/17 04:26:01;;;;;;;5.80;3.05;;;;;;;16.88;56.20;100315.30;1735439;78;21827;-74
2022/06/17 04:28:52;;;;;;;6.15;2.92;;;;;;;16.99;56.14;100315.01;1777842;78;21427;-74
2022/06/17 04:31:25;;;;;;;6.53;3.20;;;;;;;17.09;55.92;100310.85;1778480;79;21471;-73
2022/06/17 04:34:03;;;;;;;5.63;3.20;;;;;;;17.20;55.90;100310.52;1779440;78;20968;-73
2022/06/17 04:36:48;;;;;;;7.03;3.20;;;;;;;17.30;55.63;100313.03;1756979;80;21070;-73
2022/06/17 04:39:39;;;;;;;6.53;3.00;;;;;;;17.40;55.47;100307.02;1773588;78;21947;-73
2022/06/17 04:42:16;;;;;;;8.98;2.95;;;;;;;17.51;54.52;100312.02;1757437;78;21077;-73
2022/06/17 04:44:45;;;;;;;6.83;3.37;;;;;;;17.63;54.23;100307.16;1783299;78;21482;-73
2022/06/17 04:47:15;;;;;;;7.03;3.25;;;;;;;17.74;54.01;100306.83;1782129;78;21026;-73
2022/06/17 04:49:47;;;;;;;7.70;3.62;;;;;;;17.83;54.24;100310.33;1768281;78;20934;-74
2022/06/17 04:52:26;;;;;;;14.40;3.15;;;;;;;17.92;53.95;100310.64;1773854;78;21790;-72
2022/06/17 04:54:57;;;;;;;7.65;2.90;;;;;;;18.02;53.90;100313.45;1780049;79;20985;-72
2022/06/17 04:57:31;;;;;;;17.15;3.00;;;;;;;18.13;53.51;100312.24;1754820;80;21078;-71
2022/06/17 05:00:09;;;;;;;6.05;3.17;;;;;;;18.23;52.99;100312.04;1776483;79;21049;-72
2022/06/17 05:02:37;;;;;;;6.45;3.20;;;;;;;18.35;52.65;100315.20;1759854;80;20968;-73
2022/06/17 05:05:35;;;;;;;5.35;2.90;;;;;;;18.46;52.53;100309.46;1761355;80;21837;-73
2022/06/17 05:08:24;;;;;;;5.67;3.20;;;;;;;18.58;51.90;100310.73;1762960;80;21509;-84
2022/06/17 05:11:00;;;;;;;5.65;2.80;;;;;;;18.71;52.02;100307.00;1764991;80;21086;-75
2022/06/17 05:13:36;;;;;;;6.92;2.98;;;;;;;18.84;51.65;100312.63;1727875;81;21108;-77
2022/06/17 05:16:05;;;;;;;7.60;2.83;;;;;;;18.99;50.79;100311.85;1761502;78;21038;-77
2022/06/17 05:18:32;;;;;;;5.25;2.52;;;;;;;19.11;50.43;100311.78;1762970;80;21852;-76
2022/06/17 05:21:23;;;;;;;4.92;2.30;;;;;;;19.21;50.20;100300.84;1782000;80;21377;-75
2022/06/17 05:23:55;;;;;;;4.95;2.75;;;;;;;19.34;49.93;100303.73;1770622;80;21034;-75
2022/06/17 05:26:23;;;;;;;9.83;2.75;;;;;;;19.46;49.10;100299.59;1736494;80;20967;-78
2022/06/17 05:28:50;;;;;;;8.45;2.47;;;;;;;19.59;48.92;100305.22;1758913;80;21061;-74
2022/06/17 05:31:20;;;;;;;9.60;3.02;;;;;;;19.73;48.74;100303.56;1763327;80;21786;-73
2022/06/17 05:33:51;;;;;;;6.53;2.52;;;;;;;19.90;48.58;100291.67;1756484;80;20902;-75
2022/06/17 05:36:18;;;;;;;9.18;2.77;;;;;;;20.08;48.16;100298.52;1762271;80;20953;-74
2022/06/17 05:38:45;;;;;;;5.47;2.30;;;;;;;20.21;48.11;100292.81;1771244;80;21021;-75
2022/06/17 05:41:17;;;;;;;4.05;2.12;;;;;;;20.34;47.46;100290.80;1721939;81;21142;-75
2022/06/17 05:43:44;;;;;;;4.47;2.17;;;;;;;20.46;47.54;100288.49;1693086;83;23127;-73
2022/06/17 05:46:13;;;;;;;7.33;2.22;;;;;;;20.57;46.83;100286.18;1691111;84;21024;-77
2022/06/17 05:48:51;;;;;;;8.95;2.25;;;;;;;20.71;46.36;100286.32;1661481;84;21470;-76
2022/06/17 05:51:19;;;;;;;7.28;2.25;;;;;;;20.84;45.74;100282.42;1704708;81;21070;-75
2022/06/17 05:53:47;;;;;;;8.28;1.95;;;;;;;20.94;45.13;100284.31;1729231;81;21009;-77
2022/06/17 05:56:16;;;;;;;3.87;1.90;;;;;;;21.07;44.78;100291.14;1698159;81;21856;-72
2022/06/17 05:58:44;;;;;;;4.60;1.90;;;;;;;21.24;44.31;100285.00;1736717;81;21020;-75
2022/06/17 06:01:12;;;;;;;4.62;1.77;;;;;;;21.38;43.94;100288.14;1721411;81;21068;-76
2022/06/17 06:03:38;;;;;;;5.03;1.80;;;;;;;21.51;43.38;100283.38;1728178;83;20962;-75
2022/06/17 06:06:06;;;;;;;6.58;1.80;;;;;;;21.65;43.05;100281.12;1719886;82;21092;-75
2022/06/17 06:08:34;;;;;;;3.77;2.00;;;;;;;21.82;42.47;100279.48;1721912;83;20923;-73
2022/06/17 06:11:04;;;;;;;6.17;1.60;;;;;;;21.96;42.36;100282.55;1719359;82;21008;-74
2022/06/17 06:13:34;;;;;;;;;;;;;;;22.10;40.05;100281.64;1711954;82;21418;-72
2022/06/17 06:16:01;;;;;;;3.58;1.30;;;;;;;22.28;39.97;100277.05;1707997;83;20554;-81
2022/06/17 06:18:39;;;;;;;5.50;1.67;;;;;;;22.43;39.21;100277.75;1716205;83;21109;-73
2022/06/17 06:21:08;;;;;;;3.83;1.22;;;;;;;22.62;39.12;100275.33;1702319;83;21945;-74
2022/06/17 06:23:38;;;;;;;6.70;1.40;;;;;;;22.71;38.13;100274.94;1706820;83;21052;-73
2022/06/17 06:26:07;;;;;;;10.68;1.65;;;;;;;22.83;36.26;100269.27;1719886;82;21169;-75
2022/06/17 06:28:34;;;;;;;9.85;1.70;;;;;;;22.96;36.03;100264.95;1709850;83;20958;-72
2022/06/17 06:31:32;;;;;;;14.20;1.67;;;;;;;23.08;36.00;100264.16;1707635;83;21022;-75
2022/06/17 06:34:00;;;;;;;5.78;1.40;;;;;;;23.19;35.26;100262.72;1685920;83;22223;-74
2022/06/17 06:36:34;;;;;;;4.90;1.70;;;;;;;23.30;34.80;100264.79;1708701;81;21033;-73
2022/06/17 06:39:01;;;;;;;8.53;1.65;;;;;;;23.32;35.06;100255.97;1716922;83;21065;-74
2022/06/17 06:41:27;;;;;;;4.17;1.30;;;;;;;23.43;35.01;100255.86;1715010;82;21378;-75
2022/06/17 06:43:56;;;;;;;5.80;1.52;;;;;;;23.52;34.29;100253.78;1715507;83;20962;-74
2022/06/17 06:46:27;;;;;;;4.30;1.75;;;;;;;23.59;33.99;100254.64;1709938;82;21856;-75
2022/06/17 06:48:54;;;;;;;4.33;1.40;;;;;;;23.66;33.09;100259.52;1717000;83;21403;-74
2022/06/17 06:51:20;;;;;;;4.67;1.50;;;;;;;23.70;31.88;100259.39;1731877;81;21005;-73
2022/06/17 06:53:51;;;;;;;2.27;1.10;;;;;;;23.78;33.03;100251.61;1681931;83;21393;-74
2022/06/17 06:56:18;;;;;;;1.85;1.10;;;;;;;23.83;32.86;100244.52;1715311;83;21059;-72
2022/06/17 06:58:50;;;;;;;2.75;1.30;;;;;;;23.88;32.48;100251.47;1715698;83;21119;-75
2022/06/17 07:01:17;;;;;;;1.15;0.90;;;;;;;23.95;31.83;100254.16;1715111;81;21537;-74
2022/06/17 07:03:44;;;;;;;9.08;1.60;;;;;;;24.01;30.35;100250.59;1718271;83;21045;-73
2022/06/17 07:06:12;;;;;;;7.80;1.25;;;;;;;24.11;31.40;100254.19;1680215;85;21055;-74
2022/06/17 07:08:39;;;;;;;2.90;1.12;;;;;;;24.20;30.79;100252.91;1681554;83;21082;-78
2022/06/17 07:11:08;;;;;;;4.28;1.20;;;;;;;24.30;30.89;100247.89;1688519;85;21930;-79
2022/06/17 07:13:36;;;;;;;6.35;1.40;;;;;;;24.45;31.43;100243.09;1686551;85;21087;-77
2022/06/17 07:16:07;;;;;;;5.85;1.22;;;;;;;24.59;31.46;100251.11;1686566;84;21080;-78
2022/06/17 07:18:36;;;;;;;3.27;1.20;;;;;;;24.72;29.83;100249.70;1715972;81;21048;-78
2022/06/17 07:21:05;;;;;;;8.05;1.25;;;;;;;24.81;29.53;100251.09;1716649;81;21047;-74
2022/06/17 07:23:37;;;;;;;4.30;1.05;;;;;;;24.87;28.71;100248.86;1695904;83;21119;-81
2022/06/17 07:26:15;;;;;;;4.08;1.20;;;;;;;25.00;28.91;100255.53;1692838;83;21539;-78
2022/06/17 07:28:42;;;;;;;4.08;1.15;;;;;;;25.10;28.21;100249.15;1717284;81;21592;-78
2022/06/17 07:31:10;;;;;;;2.20;0.98;;;;;;;25.11;28.00;100248.09;1726855;82;21613;-78
2022/06/17 07:33:40;;;;;;;1.47;1.00;;;;;;;25.10;27.66;100247.80;1711736;83;21126;-76
2022/06/17 07:36:09;;;;;;;1.57;0.98;;;;;;;25.15;27.91;100244.95;1688853;83;21796;-77
2022/06/17 07:41:25;;;;;;;21.33;1.80;;;;;;;25.23;29.16;100236.05;1701062;83;21107;-76
2022/06/17 07:43:52;;;;;;;5.50;1.25;;;;;;;25.39;28.99;100238.72;1703420;83;21100;-74
2022/06/17 07:46:22;;;;;;;4.53;1.30;;;;;;;25.51;28.32;100238.29;1712842;82;21118;-77
2022/06/17 07:48:48;;;;;;;4.40;1.40;;;;;;;25.56;28.17;100239.78;1686383;85;21945;-82
2022/06/17 07:51:16;;;;;;;2.83;1.20;;;;;;;25.66;28.64;100239.27;1700233;83;20987;-76
2022/06/17 07:53:43;;;;;;;3.25;1.30;;;;;;;25.75;28.46;100233.91;1683171;83;21029;-80
2022/06/17 07:56:13;;;;;;;3.60;1.27;;;;;;;25.82;27.47;100233.31;1695192;84;21050;-79
2022/06/17 07:58:41;;;;;;;3.05;1.22;;;;;;;25.91;28.15;100237.91;1670606;84;21118;-77
2022/06/17 08:01:07;;;;;;;3.40;1.30;;;;;;;26.01;28.77;100241.44;1704166;81;22134;-76
2022/06/17 08:03:34;;;;;;;2.83;1.22;;;;;;;26.13;28.28;100225.55;1746002;81;21018;-77
2022/06/17 08:06:02;;;;;;;3.40;1.20;;;;;;;26.24;27.80;100236.14;1729801;81;20997;-78
2022/06/17 08:08:29;;;;;;;7.45;1.40;;;;;;;26.28;27.91;100239.23;1745813;82;21087;-77
2022/06/17 08:10:58;;;;;;;4.87;1.30;;;;;;;26.36;28.14;100238.93;1717622;82;21511;-76
2022/06/17 08:13:27;;;;;;;3.00;1.20;;;;;;;26.43;27.86;100228.31;1744793;81;21087;-77
2022/06/17 08:15:59;;;;;;;6.10;1.60;;;;;;;26.51;27.91;100239.36;1741796;82;21483;-79
2022/06/17 08:18:27;;;;;;;2.85;1.30;;;;;;;26.59;27.78;100239.05;1701747;82;21069;-78
2022/06/17 08:20:53;;;;;;;2.70;1.20;;;;;;;26.57;27.90;100239.81;1710471;83;20998;-79
2022/06/17 08:23:21;;;;;;;4.37;1.40;;;;;;;26.56;28.10;100235.98;1741840;82;21091;-79
2022/06/17 08:25:49;;;;;;;8.48;1.30;;;;;;;26.61;28.29;100232.87;1729349;83;22531;-76
2022/06/17 08:28:17;;;;;;;3.30;1.12;;;;;;;26.70;27.74;100238.79;1729229;83;21539;-79
2022/06/17 08:30:47;;;;;;;2.52;1.20;;;;;;;26.62;27.30;100232.33;1729404;83;21068;-78
2022/06/17 08:33:14;;;;;;;2.65;1.00;;;;;;;26.51;26.88;100232.06;1737524;81;22036;-78
2022/06/17 08:35:45;;;;;;;2.27;1.10;;;;;;;26.32;27.20;100226.88;1733857;82;21448;-78
2022/06/17 08:38:20;;;;;;;3.83;1.30;;;;;;;26.16;27.60;100227.83;1731363;82;21824;-78
2022/06/17 08:40:58;;;;;;;5.47;1.27;;;;;;;26.13;27.37;100226.91;1751730;80;20949;-79
2022/06/17 08:44:01;;;;;;;2.17;1.60;;;;;;;26.08;28.02;100230.84;1747247;81;21095;-78
2022/06/17 08:47:01;;;;;;;3.67;1.92;;;;;;;26.07;28.41;100222.42;1745776;82;21374;-78
2022/06/17 08:50:07;;;;;;;5.47;1.60;;;;;;;26.22;28.27;100214.72;1715286;83;21033;-77
2022/06/17 08:53:13;;;;;;;3.95;1.40;;;;;;;26.36;27.35;100222.16;1728914;82;21854;-76
2022/06/17 08:56:23;;;;;;;5.25;1.20;;;;;;;26.45;27.24;100225.41;1744307;82;21085;-76
2022/06/17 08:59:19;;;;;;;2.33;0.95;;;;;;;26.61;28.20;100223.91;1739884;82;21553;-79
2022/06/17 09:02:01;;;;;;;1.90;0.95;;;;;;;26.87;27.58;100228.95;1740695;82;21083;-77
2022/06/17 09:04:58;;;;;;;2.00;1.10;;;;;;;27.06;26.94;100225.66;1687445;82;21073;-74
2022/06/17 09:07:46;;;;;;;4.85;1.30;;;;;;;27.21;26.90;100220.59;1742102;81;22270;-77
2022/06/17 09:10:38;;;;;;;2.52;1.00;;;;;;;27.42;26.46;100230.59;1728611;81;21503;-73
2022/06/17 09:13:20;;;;;;;2.55;0.90;;;;;;;27.55;25.95;100224.91;1691618;84;21082;-75
2022/06/17 09:16:13;;;;;;;4.65;2.90;;;;;;;27.66;25.36;100224.93;1747169;81;21015;-74
2022/06/17 09:18:43;;;;;;;3.85;3.20;;;;;;;27.78;25.99;100219.48;1727167;81;21044;-73
2022/06/17 09:21:27;;;;;;;4.25;2.10;;;;;;;27.95;26.05;100211.44;1728559;82;21976;-72
2022/06/17 09:23:54;;;;;;;4.47;1.30;;;;;;;28.05;25.87;100211.64;1734367;82;21056;-75
2022/06/17 09:26:26;;;;;;;15.18;1.65;;;;;;;28.16;26.12;100214.84;1722377;82;21103;-74
2022/06/17 09:29:01;;;;;;;2.40;1.05;;;;;;;28.34;25.85;100213.05;1735077;81;21130;-73
2022/06/17 09:31:41;;;;;;;3.55;0.90;;;;;;;28.50;24.85;100209.03;1709090;82;20957;-73
2022/06/17 09:34:52;;;;;;;2.50;1.00;;;;;;;28.57;25.26;100210.76;1726483;81;21947;-73
2022/06/17 09:37:30;;;;;;;3.50;1.00;;;;;;;28.48;24.49;100216.61;1714755;82;21001;-75
2022/06/17 09:40:06;;;;;;;4.72;3.37;;;;;;;28.17;24.77;100206.99;1709797;81;21474;-74
2022/06/17 09:42:56;;;;;;;3.98;2.50;;;;;;;28.06;25.89;100201.07;1715214;83;21028;-74
2022/06/17 09:45:40;;;;;;;4.85;2.65;;;;;;;28.20;25.39;100211.14;1718282;82;21043;-73
2022/06/17 09:48:19;;;;;;;3.12;1.00;;;;;;;28.21;25.14;100209.53;1717574;83;21956;-74
2022/06/17 09:51:06;;;;;;;4.58;1.20;;;;;;;28.01;24.65;100198.80;1698462;83;21054;-71
2022/06/17 09:53:38;;;;;;;4.58;1.52;;;;;;;27.89;25.63;100192.87;1718234;81;21087;-73
2022/06/17 09:56:13;;;;;;;12.20;1.55;;;;;;;28.11;26.13;100194.41;1718786;83;21158;-74
2022/06/17 09:58:56;;;;;;;3.67;1.45;;;;;;;28.38;25.76;100186.54;1718921;82;21498;-73
2022/06/17 10:01:23;;;;;;;3.15;1.10;;;;;;;28.69;25.99;100185.72;1719687;83;22489;-73
2022/06/17 10:03:50;;;;;;;5.65;3.45;;;;;;;28.99;26.05;100186.27;1719610;83;21504;-72
2022/06/17 10:06:48;;;;;;;11.08;2.55;;;;;;;29.24;25.30;100183.63;1719559;83;21082;-72
2022/06/17 10:09:40;;;;;;;7.85;3.33;;;;;;;29.35;24.71;100178.12;1750519;81;21538;-72
2022/06/17 10:12:40;;;;;;;8.03;1.70;;;;;;;29.38;24.42;100172.70;1749504;82;22071;-73
2022/06/17 10:18:31;;;;;;;6.85;1.55;;;;;;;29.38;24.42;100172.70;1749184;80;21793;-73
2022/06/17 10:18:33;;;;;;;66.30;8.03;;;;;;;29.23;24.34;100169.21;1744710;82;21958;-73
2022/06/17 10:21:06;;;;;;;3.62;1.22;;;;;;;29.07;24.70;100170.89;1749446;81;21060;-73
2022/06/17 10:23:50;;;;;;;3.47;1.30;;;;;;;28.90;24.08;100160.55;1717759;83;21067;-74
2022/06/17 10:26:44;;;;;;;2.00;1.10;;;;;;;28.74;24.71;100176.28;1733951;81;21214;-73
2022/06/17 10:29:43;;;;;;;;;;;;;;;28.62;24.74;100160.05;1709220;81;22095;-80
2022/06/17 10:32:10;;;;;;;4.70;1.20;;;;;;;28.47;24.73;100176.08;1748488;81;20409;-73
2022/06/17 10:34:50;;;;;;;4.67;1.07;;;;;;;28.24;24.92;100164.77;1749672;81;21040;-74
2022/06/17 10:37:17;;;;;;;1.87;1.20;;;;;;;28.24;24.84;100166.13;1742381;81;21534;-75
2022/06/17 10:39:43;;;;;;;3.55;1.30;;;;;;;28.35;25.11;100167.16;1749690;81;21497;-79
2022/06/17 10:42:15;;;;;;;5.72;1.35;;;;;;;28.51;24.96;100161.77;1750421;81;22235;-75
2022/06/17 10:44:46;;;;;;;2.70;2.08;;;;;;;28.64;24.83;100153.01;1722305;81;21043;-75
2022/06/17 10:47:50;;;;;;;4.72;3.10;;;;;;;28.65;24.46;100150.58;1748969;82;21032;-73
2022/06/17 10:50:25;;;;;;;4.45;2.72;;;;;;;28.55;25.14;100150.41;1748955;80;21035;-75
2022/06/17 10:53:28;;;;;;;8.03;5.72;;;;;;;28.44;25.10;100142.61;1750023;81;21005;-73
2022/06/17 10:55:59;;;;;;;5.28;2.52;;;;;;;28.57;25.69;100142.83;1707302;81;21814;-73
2022/06/17 10:58:32;;;;;;;2.95;1.30;;;;;;;28.78;24.53;100140.22;1748153;81;21011;-72
2022/06/17 11:01:05;;;;;;;2.60;1.40;;;;;;;28.86;24.68;100135.45;1749356;82;21035;-73
2022/06/17 11:03:36;;;;;;;3.62;1.27;;;;;;;28.83;24.74;100135.92;1754150;81;21011;-73
2022/06/17 11:06:13;;;;;;;3.25;1.50;;;;;;;28.82;24.83;100132.39;1751810;80;21020;-74
2022/06/17 11:08:52;;;;;;;6.55;1.70;;;;;;;28.94;24.50;100130.42;1749111;80;21856;-78
2022/06/17 11:14:46;;;;;;;4.47;1.35;;;;;;;29.24;24.20;100122.43;1713135;81;21135;-74
2022/06/17 11:17:39;;;;;;;5.83;1.30;;;;;;;29.03;23.80;100124.86;1746398;82;21004;-77
2022/06/17 11:20:18;;;;;;;5.00;2.90;;;;;;;28.76;24.37;100124.70;1784236;79;21525;-77
2022/06/17 11:23:25;;;;;;;4.47;3.77;;;;;;;28.53;24.21;100130.27;1776981;78;21871;-73
2022/06/17 11:26:14;;;;;;;7.15;3.50;;;;;;;28.26;24.74;100125.95;1732755;78;21042;-72
2022/06/17 11:28:45;;;;;;;3.65;2.10;;;;;;;28.06;25.23;100118.26;1771843;79;21091;-74
2022/06/17 11:31:16;;;;;;;7.67;5.65;;;;;;;28.26;26.40;100111.55;1778167;78;21128;-73
2022/06/17 11:33:57;;;;;;;3.92;1.98;;;;;;;28.26;26.40;100111.55;1781733;78;21009;-74
2022/06/17 11:36:37;;;;;;;2.77;1.50;;;;;;;29.00;25.02;100090.55;1775014;78;21827;-73
2022/06/17 11:39:33;;;;;;;2.42;1.32;;;;;;;29.00;25.02;100090.55;1766782;80;20921;-73
2022/06/17 11:42:13;;;;;;;3.12;1.50;;;;;;;29.24;25.03;100099.31;1757231;79;20978;-73
2022/06/17 11:45:01;;;;;;;2.67;1.50;;;;;;;29.48;24.75;100095.33;1780840;78;20996;-72
2022/06/17 11:47:30;;;;;;;3.98;1.65;;;;;;;29.54;24.23;100086.70;1750327;81;20936;-74
2022/06/17 11:50:16;;;;;;;7.10;1.30;;;;;;;29.45;24.84;100087.64;1746097;80;21802;-73
2022/06/17 11:52:43;;;;;;;7.50;1.60;;;;;;;29.33;23.78;100088.28;1691473;83;21088;-73
2022/06/17 11:55:09;;;;;;;2.08;1.30;;;;;;;29.10;24.45;100089.88;1745714;82;20986;-72
2022/06/17 11:57:39;;;;;;;5.67;1.35;;;;;;;29.02;25.04;100083.78;1705283;83;20943;-72
2022/06/17 12:00:26;;;;;;;10.30;1.57;;;;;;;29.15;24.30;100081.27;1751082;80;21029;-72
2022/06/17 12:02:59;;;;;;;1.90;1.20;;;;;;;29.44;24.52;100086.00;1718604;82;21748;-73
2022/06/17 12:05:30;;;;;;;3.62;1.25;;;;;;;29.66;23.70;100083.30;1748103;82;21499;-73
2022/06/17 12:08:13;;;;;;;4.22;1.30;;;;;;;29.50;23.93;100085.00;1730818;82;20960;-72
2022/06/17 12:10:58;;;;;;;4.37;1.40;;;;;;;29.34;24.40;100075.81;1726158;82;21131;-72